Time;durP1;ratioP1;P1;durP2;ratioP2;P2;SDS_P1;SDS_P2;PMS_P1;PMS_P2;Temp;Humidity;BMP_temperature;BMP_pressure;BME280_temperature;BME280_humidity;BME280_pressure;Samples;Min_cycle;Max_cycle;Signal;HPM_P1;HPM_P2
2022/10/06 00:02:07;;;;;;;21.05;2.47;;;;;;;13.76;88.99;102178.50;5026616;28;20045;-62
2022/10/06 00:04:32;;;;;;;12.93;1.73;;;;;;;13.71;88.18;102183.91;5026964;28;20503;-62
2022/10/06 00:06:57;;;;;;;13.98;2.40;;;;;;;13.70;87.82;102197.19;5027913;28;20546;-67
2022/10/06 00:09:23;;;;;;;9.40;1.80;;;;;;;13.72;88.39;102200.66;5026354;28;20383;-61
2022/10/06 00:11:48;;;;;;;15.75;2.00;;;;;;;13.68;88.69;102204.28;5027645;28;20021;-62
2022/10/06 00:14:13;;;;;;;9.05;2.05;;;;;;;13.61;87.68;102203.59;5027790;28;20091;-62
2022/10/06 00:16:39;;;;;;;16.73;2.10;;;;;;;13.59;88.34;102206.28;5027119;28;20384;-62
2022/10/06 00:19:04;;;;;;;15.23;2.10;;;;;;;13.56;88.26;102216.94;5024859;28;20359;-61
2022/10/06 00:21:29;;;;;;;12.40;2.10;;;;;;;13.52;87.77;102223.22;5026977;28;20535;-62
2022/10/06 00:23:55;;;;;;;15.07;2.22;;;;;;;13.49;88.03;102224.16;5026382;28;20087;-63
2022/10/06 00:26:20;;;;;;;10.52;2.10;;;;;;;13.50;87.55;102227.66;5026984;28;20025;-60
2022/10/06 00:28:46;;;;;;;7.55;1.65;;;;;;;13.51;87.58;102235.59;5027631;28;20022;-61
2022/10/06 00:31:11;;;;;;;9.93;1.95;;;;;;;13.50;87.70;102239.16;5025884;28;20025;-62
2022/10/06 00:33:37;;;;;;;13.23;2.10;;;;;;;13.47;87.48;102246.25;5026074;28;20121;-61
2022/10/06 00:36:02;;;;;;;13.90;2.00;;;;;;;13.50;87.57;102254.16;5025990;28;20090;-62
2022/10/06 00:38:28;;;;;;;12.93;2.10;;;;;;;13.49;86.67;102263.88;5027416;28;20053;-65
2022/10/06 00:40:53;;;;;;;8.93;1.95;;;;;;;13.58;86.50;102252.19;5027179;28;20064;-60
2022/10/06 00:43:39;;;;;;;16.50;1.92;;;;;;;13.65;85.68;102258.22;5026441;28;20025;-63
2022/10/06 00:46:06;;;;;;;13.68;2.15;;;;;;;13.64;86.40;102281.16;5027637;28;20099;-62
2022/10/06 00:48:31;;;;;;;19.63;2.28;;;;;;;13.63;85.82;102271.50;5025809;28;20452;-63
2022/10/06 00:50:57;;;;;;;12.43;2.40;;;;;;;13.57;85.48;102271.63;5024520;28;20024;-63
2022/10/06 00:53:26;;;;;;;11.57;2.08;;;;;;;13.56;84.99;102285.78;5024785;28;20034;-60
2022/10/06 00:55:53;;;;;;;14.67;2.13;;;;;;;13.58;84.78;102286.59;5029506;28;20480;-61
2022/10/06 00:58:19;;;;;;;13.80;2.03;;;;;;;13.53;85.22;102288.50;5029718;28;20280;-61
2022/10/06 01:00:44;;;;;;;15.93;2.00;;;;;;;13.50;85.19;102293.88;5030682;28;20562;-63
2022/10/06 01:03:30;;;;;;;16.55;2.67;;;;;;;13.43;85.42;102300.19;5029650;28;20014;-61
2022/10/06 01:05:57;;;;;;;12.27;1.80;;;;;;;13.42;84.56;102327.56;5030114;28;20041;-60
2022/10/06 01:08:22;;;;;;;9.10;2.00;;;;;;;13.49;83.65;102324.75;5031496;28;20014;-61
2022/10/06 01:10:48;;;;;;;9.63;1.90;;;;;;;13.51;83.89;102320.31;5031872;28;20082;-61
2022/10/06 01:13:13;;;;;;;13.43;1.98;;;;;;;13.50;84.26;102333.59;5030591;28;20092;-62
2022/10/06 01:15:56;;;;;;;14.13;1.80;;;;;;;13.46;83.88;102313.34;5013487;28;20026;-63
2022/10/06 01:18:22;;;;;;;13.73;2.13;;;;;;;13.36;84.30;102333.84;5028456;28;20446;-61
2022/10/06 01:20:52;;;;;;;6.90;1.83;;;;;;;13.37;84.09;102333.81;5029708;28;20029;-60
2022/10/06 01:23:18;;;;;;;8.07;1.90;;;;;;;13.28;84.24;102331.41;5030509;28;20025;-62
2022/10/06 01:25:43;;;;;;;12.05;1.75;;;;;;;13.24;84.32;102334.97;5020170;28;20372;-63
2022/10/06 01:28:09;;;;;;;14.77;1.75;;;;;;;13.20;84.73;102341.25;5042165;28;20033;-62
2022/10/06 01:30:38;;;;;;;13.05;2.10;;;;;;;13.14;85.11;102347.56;5028312;28;20017;-62
2022/10/06 01:33:04;;;;;;;13.85;2.45;;;;;;;13.09;85.08;102350.28;5027688;28;20021;-62
2022/10/06 01:35:29;;;;;;;12.90;1.98;;;;;;;13.04;85.81;102356.59;5029711;28;20443;-63
2022/10/06 01:37:57;;;;;;;10.07;1.70;;;;;;;13.01;85.84;102365.47;5029811;28;20065;-61
2022/10/06 01:40:24;;;;;;;12.40;2.80;;;;;;;12.96;86.26;102356.72;5029613;28;20021;-63
2022/10/06 01:42:49;;;;;;;12.40;2.05;;;;;;;12.88;86.51;102355.09;5030548;28;20061;-61
2022/10/06 01:45:15;;;;;;;14.00;1.98;;;;;;;12.89;86.67;102359.47;5028731;28;20104;-59
2022/10/06 01:47:40;;;;;;;15.23;1.85;;;;;;;12.88;87.07;102360.41;5029466;28;20080;-61
2022/10/06 01:50:07;;;;;;;14.50;2.42;;;;;;;12.86;87.78;102369.28;5029985;28;20237;-66
2022/10/06 01:52:33;;;;;;;14.23;1.80;;;;;;;12.86;87.73;102372.78;5028511;28;20060;-61
2022/10/06 01:54:59;;;;;;;11.10;1.90;;;;;;;12.86;88.14;102378.06;5029834;28;20068;-61
2022/10/06 01:57:24;;;;;;;10.07;2.03;;;;;;;12.83;88.10;102372.84;5028471;28;20052;-60
2022/10/06 01:59:49;;;;;;;12.45;2.20;;;;;;;12.77;88.81;102379.09;5029533;28;20100;-62
2022/10/06 02:02:15;;;;;;;20.42;2.05;;;;;;;12.74;88.50;102376.50;5029506;28;20049;-62
2022/10/06 02:04:40;;;;;;;14.95;2.38;;;;;;;12.72;88.78;102378.34;5027842;28;20074;-60
2022/10/06 02:07:05;;;;;;;13.85;1.95;;;;;;;12.72;88.26;102388.91;5028700;28;20477;-62
2022/10/06 02:09:31;;;;;;;15.35;2.10;;;;;;;12.73;88.39;102389.75;5028799;28;20075;-62
2022/10/06 02:11:56;;;;;;;10.77;1.90;;;;;;;12.73;88.18;102395.06;5029875;28;20601;-63
2022/10/06 02:20:19;;;;;;;20.25;1.95;;;;;;;12.81;88.36;102401.09;4957932;28;20071;-61
2022/10/06 02:22:44;;;;;;;11.85;1.83;;;;;;;12.82;88.47;102404.63;5079427;28;20070;-61
2022/10/06 02:25:13;;;;;;;14.45;2.00;;;;;;;12.74;89.20;102402.13;5089896;28;20461;-61
2022/10/06 02:27:38;;;;;;;10.88;1.80;;;;;;;12.69;89.81;102418.06;5089877;28;20036;-61
2022/10/06 02:30:05;;;;;;;12.73;1.98;;;;;;;12.74;89.79;102412.69;5086271;28;20032;-62
2022/10/06 02:32:34;;;;;;;16.08;3.20;;;;;;;12.76;89.84;102418.81;5070682;28;20398;-61
2022/10/06 02:34:59;;;;;;;19.47;2.43;;;;;;;12.84;89.55;102414.28;5068063;28;20020;-61
2022/10/06 02:37:25;;;;;;;9.65;1.83;;;;;;;12.88;89.61;102426.53;5078102;28;20348;-61
2022/10/06 02:39:50;;;;;;;9.65;2.00;;;;;;;12.91;90.31;102430.03;5089198;28;20030;-63
2022/10/06 02:42:15;;;;;;;14.35;2.08;;;;;;;12.87;90.45;102438.03;5088267;28;20374;-62
2022/10/06 02:44:41;;;;;;;15.50;1.80;;;;;;;12.82;90.74;102439.88;5089676;28;20355;-61
2022/10/06 02:47:12;;;;;;;16.40;2.42;;;;;;;12.74;90.75;102447.06;5089148;28;20032;-62
2022/10/06 02:49:38;;;;;;;17.00;2.20;;;;;;;12.67;91.73;102442.78;5089427;28;20020;-62
2022/10/06 02:52:03;;;;;;;14.68;2.22;;;;;;;12.57;91.78;102448.22;5083188;28;20175;-62
2022/10/06 02:54:28;;;;;;;9.73;2.22;;;;;;;12.53;92.30;102465.03;5069019;28;20024;-62
2022/10/06 02:56:54;;;;;;;13.95;2.30;;;;;;;12.48;92.50;102462.47;5067166;28;20017;-62
2022/10/06 02:59:19;;;;;;;12.90;1.90;;;;;;;12.48;92.55;102458.94;5068231;28;20359;-62
2022/10/06 03:01:44;;;;;;;11.70;2.28;;;;;;;12.48;92.53;102465.13;5069120;28;20397;-62
2022/10/06 03:04:10;;;;;;;15.23;2.33;;;;;;;12.45;92.33;102472.22;5068452;28;20029;-61
2022/10/06 03:06:36;;;;;;;15.82;2.33;;;;;;;12.49;91.37;102480.06;5069414;28;20374;-61
2022/10/06 03:09:06;;;;;;;12.60;2.17;;;;;;;12.49;90.82;102477.44;5068231;28;20040;-61
2022/10/06 03:11:36;;;;;;;11.48;2.00;;;;;;;12.51;90.32;102480.94;5068965;28;20074;-62
2022/10/06 03:14:02;;;;;;;13.63;2.75;;;;;;;12.53;90.29;102493.25;5067815;28;20174;-61
2022/10/06 03:16:39;;;;;;;12.50;2.08;;;;;;;12.53;89.78;102491.50;5067206;28;20056;-61
2022/10/06 03:19:05;;;;;;;12.93;2.42;;;;;;;12.53;89.28;102495.91;5067244;28;20064;-63
2022/10/06 03:21:33;;;;;;;7.85;1.48;;;;;;;12.51;89.48;102501.19;5068667;28;20055;-63
2022/10/06 03:23:59;;;;;;;15.95;2.78;;;;;;;12.45;89.38;102501.28;5068119;28;20387;-62
2022/10/06 03:26:46;;;;;;;11.68;2.40;;;;;;;12.45;89.47;102510.09;5068298;28;20455;-62
2022/10/06 03:29:12;;;;;;;15.77;2.65;;;;;;;12.44;89.80;102520.69;5067797;28;20028;-62
2022/10/06 03:31:38;;;;;;;13.10;2.58;;;;;;;12.42;90.22;102519.84;5069149;28;20031;-62
2022/10/06 03:34:04;;;;;;;14.20;2.78;;;;;;;12.42;90.19;102515.44;5083080;28;20047;-62
2022/10/06 03:36:33;;;;;;;13.55;2.45;;;;;;;12.40;90.47;102526.94;5082940;28;20127;-62
2022/10/06 03:39:00;;;;;;;17.98;2.88;;;;;;;12.42;90.65;102531.31;5068608;28;20018;-62
2022/10/06 03:41:28;;;;;;;12.07;2.00;;;;;;;12.43;90.88;102540.13;5067454;28;20024;-61
2022/10/06 03:43:55;;;;;;;14.32;2.10;;;;;;;12.41;90.45;102536.59;5068431;28;20474;-64
2022/10/06 03:46:25;;;;;;;13.65;1.92;;;;;;;12.44;90.54;102548.03;5068171;28;20063;-62
2022/10/06 03:48:51;;;;;;;11.43;1.95;;;;;;;12.43;90.25;102542.75;5067355;28;20387;-61
2022/10/06 03:51:28;;;;;;;12.57;1.83;;;;;;;12.40;91.01;102559.50;5068096;28;20033;-61
2022/10/06 03:53:54;;;;;;;13.63;1.77;;;;;;;12.39;90.39;102555.13;5067379;28;20139;-62
2022/10/06 03:56:23;;;;;;;13.65;2.83;;;;;;;12.37;90.46;102567.47;5066603;28;20104;-62
2022/10/06 03:58:49;;;;;;;;;;;;;;;12.37;90.98;102567.47;5067547;28;20024;-63
2022/10/06 04:01:16;;;;;;;18.73;2.60;;;;;;;12.33;91.15;102566.66;5066293;28;19912;-62
2022/10/06 04:03:42;;;;;;;12.70;1.70;;;;;;;12.26;91.39;102573.78;5068091;28;20093;-64
2022/10/06 04:06:12;;;;;;;10.73;2.15;;;;;;;12.20;91.89;102575.66;5068941;28;20103;-61
2022/10/06 04:08:38;;;;;;;9.20;2.00;;;;;;;12.15;92.28;102577.47;5074685;28;20040;-61
2022/10/06 04:11:09;;;;;;;17.92;2.58;;;;;;;12.15;91.86;102588.91;5068304;28;20025;-62
2022/10/06 04:13:35;;;;;;;14.93;2.22;;;;;;;12.10;92.37;102594.25;5067510;28;20482;-62
2022/10/06 04:16:23;;;;;;;10.60;1.67;;;;;;;12.04;92.16;102591.66;5067251;28;20044;-62
2022/10/06 04:18:51;;;;;;;9.82;2.25;;;;;;;12.03;92.62;102591.66;5067115;28;20140;-62
2022/10/06 04:21:17;;;;;;;14.18;1.80;;;;;;;11.98;92.46;102597.88;5067673;28;20025;-64
2022/10/06 04:23:42;;;;;;;8.70;2.05;;;;;;;11.95;92.49;102602.34;5066053;28;20436;-61
2022/10/06 04:26:16;;;;;;;9.85;2.22;;;;;;;11.93;92.63;102605.00;5068021;28;20029;-61
2022/10/06 04:28:43;;;;;;;13.80;2.25;;;;;;;11.86;93.06;102612.13;5068565;28;20024;-63
2022/10/06 04:31:23;;;;;;;12.38;2.30;;;;;;;11.79;93.94;102607.78;5071492;28;20028;-63
2022/10/06 04:33:53;;;;;;;14.63;2.05;;;;;;;11.74;94.21;102606.97;5070731;28;20105;-62
2022/10/06 04:36:21;;;;;;;13.02;2.20;;;;;;;11.71;94.02;102612.28;5070845;28;20111;-62
2022/10/06 04:38:48;;;;;;;6.67;2.00;;;;;;;11.68;94.23;102607.88;5075031;28;20056;-63
2022/10/06 04:41:16;;;;;;;9.70;2.08;;;;;;;11.62;94.45;102611.47;5073516;28;20020;-62
2022/10/06 04:43:45;;;;;;;15.10;2.13;;;;;;;11.58;94.66;102615.03;5070585;28;20049;-62
2022/10/06 04:46:11;;;;;;;12.30;2.10;;;;;;;11.53;94.70;102619.47;5071742;28;20032;-63
2022/10/06 04:48:36;;;;;;;10.60;2.28;;;;;;;11.43;95.17;102620.44;5051176;28;20036;-62
2022/10/06 04:51:06;;;;;;;12.40;2.42;;;;;;;11.42;95.51;102629.25;5089739;28;20115;-62
2022/10/06 04:53:32;;;;;;;9.73;2.17;;;;;;;11.34;95.86;102627.56;5090403;28;20145;-63
2022/10/06 04:56:04;;;;;;;12.18;2.25;;;;;;;11.28;96.22;102635.53;5089939;28;20046;-62
2022/10/06 04:58:35;;;;;;;8.68;1.92;;;;;;;11.22;96.98;102632.94;5091208;28;20098;-62
2022/10/06 05:01:01;;;;;;;10.50;2.20;;;;;;;11.19;97.65;102638.25;5084105;28;20097;-62
2022/10/06 05:03:27;;;;;;;13.98;2.50;;;;;;;11.12;98.00;102646.22;5070240;28;20028;-62
2022/10/06 05:06:03;;;;;;;13.00;2.40;;;;;;;11.08;98.28;102647.09;5070064;28;20468;-62
2022/10/06 05:08:28;;;;;;;13.45;1.95;;;;;;;11.06;98.70;102654.19;5071080;28;20031;-61
2022/10/06 05:11:02;;;;;;;15.82;2.25;;;;;;;11.05;98.94;102656.81;5071247;28;20017;-62
2022/10/06 05:13:27;;;;;;;13.23;1.92;;;;;;;11.05;99.21;102668.22;5081541;28;20125;-62
2022/10/06 05:16:00;;;;;;;11.60;1.83;;;;;;;11.04;98.90;102671.75;5090157;28;20114;-61
2022/10/06 05:18:26;;;;;;;9.85;1.95;;;;;;;11.02;98.44;102668.28;5089362;28;20044;-63
2022/10/06 05:20:56;;;;;;;19.52;2.47;;;;;;;10.99;98.99;102674.44;5090950;28;20069;-63
2022/10/06 05:23:23;;;;;;;15.40;2.50;;;;;;;11.02;98.37;102673.56;5091259;28;20028;-61
2022/10/06 05:25:51;;;;;;;14.82;2.40;;;;;;;11.03;98.62;102683.22;5089795;28;20038;-61
2022/10/06 05:28:16;;;;;;;13.57;2.15;;;;;;;11.03;98.58;102672.66;5090927;28;20021;-61
2022/10/06 05:30:41;;;;;;;13.95;2.13;;;;;;;11.01;98.80;102679.69;5091547;28;20028;-64
2022/10/06 05:33:07;;;;;;;12.65;2.30;;;;;;;11.00;98.54;102677.94;5084597;28;20070;-62
2022/10/06 05:35:32;;;;;;;10.93;2.08;;;;;;;10.94;98.80;102684.16;5089055;28;20032;-64
2022/10/06 05:37:58;;;;;;;16.63;2.28;;;;;;;10.91;99.19;102694.72;5090133;28;20044;-63
2022/10/06 05:40:23;;;;;;;14.38;2.58;;;;;;;10.94;99.12;102692.06;5089397;28;20097;-64
2022/10/06 05:42:49;;;;;;;14.80;2.25;;;;;;;10.91;99.14;102697.34;5091125;28;20062;-62
2022/10/06 05:45:14;;;;;;;8.65;1.80;;;;;;;10.95;99.32;102711.38;5089678;28;20077;-61
2022/10/06 05:47:41;;;;;;;15.30;2.22;;;;;;;10.97;99.25;102706.97;5072097;28;20040;-63
2022/10/06 05:50:06;;;;;;;12.57;1.75;;;;;;;10.92;99.41;102714.03;5088212;28;20020;-62
2022/10/06 05:52:32;;;;;;;8.70;1.95;;;;;;;10.82;99.71;102729.91;5064257;28;20036;-65
2022/10/06 05:54:57;;;;;;;11.32;2.08;;;;;;;10.77;100.00;102730.84;5058427;28;20052;-64
2022/10/06 05:57:22;;;;;;;13.63;2.53;;;;;;;10.74;100.00;102731.69;5067559;28;20446;-63
2022/10/06 05:59:48;;;;;;;8.50;1.98;;;;;;;10.78;100.00;102728.19;5058588;28;20086;-62
2022/10/06 06:02:13;;;;;;;12.68;1.85;;;;;;;10.81;100.00;102728.16;5064590;28;20032;-64
2022/10/06 06:04:38;;;;;;;12.85;2.85;;;;;;;10.83;100.00;102736.94;5059910;28;20025;-63
2022/10/06 06:07:04;;;;;;;19.00;2.13;;;;;;;10.83;100.00;102736.94;5060641;28;20016;-62
2022/10/06 06:09:29;;;;;;;12.63;2.30;;;;;;;10.82;100.00;102734.31;5059233;28;20477;-63
2022/10/06 06:11:56;;;;;;;13.15;2.42;;;;;;;10.79;100.00;102737.84;5059207;28;20029;-61
2022/10/06 06:15:59;;;;;;;10.63;1.95;;;;;;;10.75;100.00;102738.75;5060733;28;20066;-62
2022/10/06 06:17:07;;;;;;;10.95;2.33;;;;;;;10.69;100.00;102739.63;5057011;28;20375;-62
2022/10/06 06:19:32;;;;;;;15.35;2.22;;;;;;;10.73;100.00;102744.03;5066729;28;20044;-61
2022/10/06 06:21:57;;;;;;;12.00;2.10;;;;;;;10.78;100.00;102751.91;5069200;28;20367;-63
2022/10/06 06:24:23;;;;;;;11.95;2.20;;;;;;;10.83;100.00;102750.13;5069022;28;20074;-62
2022/10/06 06:26:48;;;;;;;15.05;2.15;;;;;;;10.89;100.00;102751.00;5069361;28;20078;-61
2022/10/06 06:29:13;;;;;;;9.80;1.90;;;;;;;10.90;100.00;102763.28;5064824;28;20029;-63
2022/10/06 06:31:42;;;;;;;10.88;2.17;;;;;;;10.91;100.00;102765.03;5055895;28;20029;-61
2022/10/06 06:34:08;;;;;;;13.07;2.50;;;;;;;10.97;100.00;102770.28;5071080;28;20036;-59
2022/10/06 06:36:39;;;;;;;16.63;1.98;;;;;;;10.93;100.00;102772.03;5068330;28;20027;-60
2022/10/06 06:39:09;;;;;;;11.43;2.20;;;;;;;10.96;100.00;102779.09;5067632;28;20406;-63
2022/10/06 06:41:37;;;;;;;8.15;2.50;;;;;;;10.99;100.00;102779.94;5068038;28;20475;-60
2022/10/06 06:44:03;;;;;;;12.90;2.35;;;;;;;11.05;100.00;102780.81;5068325;28;20044;-61
2022/10/06 06:46:32;;;;;;;16.15;2.70;;;;;;;11.08;100.00;102783.44;5068400;28;20466;-63
2022/10/06 06:49:03;;;;;;;;;;;;;;;11.09;100.00;102788.72;5068449;28;20025;-63
2022/10/06 06:51:32;;;;;;;11.02;2.22;;;;;;;11.17;100.00;102793.06;5067100;28;20484;-62
2022/10/06 06:53:59;;;;;;;11.05;2.25;;;;;;;11.21;100.00;102803.59;5069070;28;20074;-62
2022/10/06 06:56:25;;;;;;;10.38;2.00;;;;;;;11.30;100.00;102809.69;5073487;28;20509;-62
2022/10/06 06:58:50;;;;;;;11.13;2.30;;;;;;;11.34;100.00;102807.03;5069616;28;20036;-61
2022/10/06 07:01:18;;;;;;;10.02;2.40;;;;;;;11.38;100.00;102813.19;5067911;28;20016;-61
2022/10/06 07:03:50;;;;;;;9.52;2.10;;;;;;;11.38;100.00;102821.97;5068607;28;20024;-61
2022/10/06 07:06:16;;;;;;;12.82;2.25;;;;;;;11.43;100.00;102813.13;5068245;28;20087;-62
2022/10/06 07:08:44;;;;;;;15.23;2.45;;;;;;;11.52;100.00;102826.28;5075589;28;20028;-62
2022/10/06 07:11:16;;;;;;;11.65;2.20;;;;;;;11.55;100.00;102831.56;5088811;28;20169;-62
2022/10/06 07:13:42;;;;;;;15.07;2.15;;;;;;;11.64;99.98;102838.53;5082799;28;20126;-61
2022/10/06 07:27:06;;;;;;;10.18;1.60;;;;;;;12.11;97.69;102862.91;5057474;28;20407;-62
2022/10/06 07:29:31;;;;;;;12.85;2.63;;;;;;;12.19;97.33;102859.34;5063882;28;20123;-63
2022/10/06 07:31:56;;;;;;;13.80;2.03;;;;;;;12.27;96.69;102857.50;5067100;28;20059;-63
2022/10/06 07:34:22;;;;;;;17.00;3.00;;;;;;;12.37;96.72;102863.56;5058569;28;20064;-63
2022/10/06 07:36:52;;;;;;;9.05;1.90;;;;;;;12.35;96.82;102873.28;5057612;28;20025;-63
2022/10/06 07:39:18;;;;;;;16.65;2.38;;;;;;;12.44;96.21;102870.56;5064873;28;20040;-63
2022/10/06 07:41:43;;;;;;;18.20;2.25;;;;;;;12.51;96.08;102872.25;5064884;28;20032;-60
2022/10/06 07:44:08;;;;;;;9.00;2.53;;;;;;;12.62;95.97;102868.63;5066673;28;20028;-62
2022/10/06 07:46:34;;;;;;;14.68;2.20;;;;;;;12.71;95.55;102875.59;5067754;28;20498;-63
2022/10/06 07:48:59;;;;;;;13.43;2.38;;;;;;;12.74;95.63;102873.78;5069955;28;20066;-64
2022/10/06 07:51:26;;;;;;;8.45;1.92;;;;;;;12.81;95.25;102885.19;5067957;28;20052;-62
2022/10/06 07:53:52;;;;;;;11.23;2.55;;;;;;;12.91;94.73;102885.94;5059580;28;20032;-63
2022/10/06 07:56:21;;;;;;;12.05;2.03;;;;;;;12.98;94.29;102881.50;5066135;28;20028;-62
2022/10/06 07:58:47;;;;;;;9.75;2.78;;;;;;;13.06;93.66;102890.19;5051521;28;20024;-62
2022/10/06 08:01:14;;;;;;;10.88;2.13;;;;;;;13.10;93.73;102889.25;5064678;28;20071;-63
2022/10/06 08:03:41;;;;;;;12.55;2.22;;;;;;;13.19;93.52;102898.00;5086666;28;20448;-64
2022/10/06 08:06:11;;;;;;;14.43;2.45;;;;;;;13.26;93.13;102897.91;5087043;28;20099;-62
2022/10/06 08:08:36;;;;;;;11.63;1.77;;;;;;;13.32;92.79;102904.03;5087653;28;20389;-63
2022/10/06 08:11:03;;;;;;;12.90;1.90;;;;;;;13.34;92.10;102911.03;5086518;28;20024;-64
2022/10/06 08:13:32;;;;;;;15.18;2.30;;;;;;;13.46;91.96;102914.44;5075442;28;20120;-62
2022/10/06 08:16:07;;;;;;;15.57;2.47;;;;;;;13.52;91.83;102920.56;5067869;28;20033;-63
2022/10/06 08:18:33;;;;;;;11.32;1.60;;;;;;;13.62;91.62;102926.63;5065970;28;20135;-63
2022/10/06 08:20:58;;;;;;;8.02;1.60;;;;;;;13.70;90.90;102920.34;5067296;28;20032;-64
2022/10/06 08:23:24;;;;;;;14.20;1.92;;;;;;;13.77;91.01;102920.25;5067727;28;20490;-65
2022/10/06 08:25:52;;;;;;;8.07;1.48;;;;;;;13.86;90.03;102924.53;5068066;28;20024;-63
2022/10/06 08:28:19;;;;;;;10.63;1.67;;;;;;;13.97;89.23;102928.81;5067687;28;20032;-64
2022/10/06 08:30:44;;;;;;;10.52;1.73;;;;;;;14.09;88.87;102925.94;5068172;28;20021;-62
2022/10/06 08:33:10;;;;;;;8.32;1.98;;;;;;;14.30;88.32;102926.50;5065974;28;20051;-64
2022/10/06 08:35:36;;;;;;;10.68;2.00;;;;;;;14.51;87.55;102929.72;5064164;28;20032;-63
2022/10/06 08:38:01;;;;;;;18.02;2.47;;;;;;;14.72;86.85;102928.44;5057455;28;20543;-64
2022/10/06 08:40:27;;;;;;;9.77;1.80;;;;;;;14.97;86.04;102936.00;5066587;28;20035;-64
2022/10/06 08:42:57;;;;;;;3.92;1.23;;;;;;;15.11;84.11;102927.75;5066513;28;20132;-63
2022/10/06 08:45:34;;;;;;;5.00;1.27;;;;;;;15.14;82.64;102951.59;5065553;28;20020;-63
2022/10/06 08:48:06;;;;;;;6.53;1.42;;;;;;;15.19;81.06;102947.97;5067399;28;20024;-64
2022/10/06 08:50:37;;;;;;;6.57;1.33;;;;;;;15.19;79.39;102956.81;5066332;28;20151;-62
2022/10/06 08:53:08;;;;;;;8.95;1.70;;;;;;;15.26;78.22;102958.44;5061947;28;20121;-65
2022/10/06 08:55:34;;;;;;;7.15;1.65;;;;;;;15.20;77.50;102957.72;5067983;28;20435;-63
2022/10/06 08:58:21;;;;;;;12.88;1.83;;;;;;;15.38;77.13;102967.97;5067234;28;20067;-63
2022/10/06 09:00:47;;;;;;;4.25;1.38;;;;;;;15.36;77.03;102977.75;5068244;28;20459;-61
2022/10/06 09:03:21;;;;;;;7.68;1.05;;;;;;;15.42;76.77;102976.75;5067639;28;20098;-64
2022/10/06 09:05:47;;;;;;;9.18;1.40;;;;;;;15.38;75.73;102981.25;5081815;28;20466;-64
2022/10/06 09:08:36;;;;;;;6.35;1.40;;;;;;;15.49;75.81;102980.13;5087450;28;20039;-64
2022/10/06 09:11:13;;;;;;;13.65;1.80;;;;;;;15.59;76.28;102973.72;5086685;28;20042;-63
2022/10/06 09:13:46;;;;;;;9.98;1.48;;;;;;;15.76;76.46;102985.78;5078558;28;20118;-65
2022/10/06 09:16:16;;;;;;;10.77;1.85;;;;;;;15.60;76.27;102990.56;5070005;28;20475;-62
2022/10/06 09:18:56;;;;;;;12.40;1.95;;;;;;;15.39;74.14;102998.06;5070185;28;20193;-62
2022/10/06 09:21:29;;;;;;;9.75;1.48;;;;;;;15.08;75.40;103001.31;5069056;28;20063;-64
2022/10/06 09:24:02;;;;;;;6.82;1.38;;;;;;;14.85;75.11;103003.47;5069683;28;20032;-61
2022/10/06 09:26:32;;;;;;;6.88;1.00;;;;;;;14.89;76.38;103001.63;5090617;28;20051;-63
2022/10/06 09:28:58;;;;;;;5.32;1.50;;;;;;;14.86;76.55;103007.88;5090905;28;20024;-63
2022/10/06 09:31:30;;;;;;;9.55;1.30;;;;;;;15.01;77.32;103006.72;5091535;28;20043;-64
2022/10/06 09:34:08;;;;;;;8.02;1.42;;;;;;;15.09;77.39;103001.28;5090800;28;20381;-65
2022/10/06 09:37:03;;;;;;;9.32;1.80;;;;;;;15.23;76.31;102993.03;5085763;28;20025;-60
2022/10/06 09:39:35;;;;;;;5.57;1.77;;;;;;;15.36;77.67;102993.69;5070842;28;20111;-66
2022/10/06 09:42:03;;;;;;;10.55;1.90;;;;;;;15.55;77.36;102998.63;5069967;28;20066;-63
2022/10/06 09:44:32;;;;;;;6.03;1.60;;;;;;;15.71;76.50;103000.97;5075789;28;20037;-64
2022/10/06 09:46:57;;;;;;;7.40;1.90;;;;;;;15.81;76.50;103004.28;5059805;28;20047;-62
2022/10/06 09:49:30;;;;;;;10.00;1.92;;;;;;;15.85;76.28;103004.19;5056198;28;20021;-61
2022/10/06 09:52:17;;;;;;;10.90;1.90;;;;;;;15.81;76.53;103006.94;5065203;28;20024;-63
2022/10/06 09:54:43;;;;;;;7.50;1.85;;;;;;;15.83;77.10;103002.50;5055389;28;20017;-61
2022/10/06 09:57:17;;;;;;;6.25;1.70;;;;;;;15.84;77.22;103002.47;5064648;28;20029;-63
2022/10/06 09:59:44;;;;;;;6.78;1.67;;;;;;;15.89;76.63;103005.00;5060866;28;20036;-63
2022/10/06 10:02:35;;;;;;;10.18;2.00;;;;;;;16.04;75.20;103003.81;5054417;28;20032;-62
2022/10/06 10:05:05;;;;;;;10.95;1.40;;;;;;;16.03;75.41;103010.03;5057388;28;20044;-64
2022/10/06 10:07:33;;;;;;;7.90;1.58;;;;;;;16.09;74.96;103006.38;5070723;28;20036;-62
2022/10/06 10:10:19;;;;;;;12.02;1.73;;;;;;;16.08;74.72;103005.50;5069647;28;20029;-61
2022/10/06 10:12:56;;;;;;;11.30;1.70;;;;;;;16.10;73.42;103019.63;5069733;28;20028;-61
2022/10/06 10:15:23;;;;;;;11.43;1.73;;;;;;;16.12;73.13;103011.63;5070170;28;20056;-63
2022/10/06 10:17:56;;;;;;;6.75;1.50;;;;;;;16.20;73.68;103008.78;5068813;28;20028;-63
2022/10/06 10:20:32;;;;;;;9.55;1.52;;;;;;;16.12;73.34;103023.16;5066903;28;20953;-61
2022/10/06 10:23:17;;;;;;;8.15;2.00;;;;;;;16.08;73.74;103021.47;5063489;28;20033;-62
2022/10/06 10:26:03;;;;;;;6.63;1.98;;;;;;;16.20;73.41;103028.28;5066548;28;20020;-62
2022/10/06 10:28:41;;;;;;;5.65;1.60;;;;;;;16.35;73.41;103024.41;5061278;28;20025;-61
2022/10/06 10:31:15;;;;;;;7.43;1.63;;;;;;;16.37;72.93;103027.00;5057278;28;20036;-63
2022/10/06 10:33:54;;;;;;;8.38;1.60;;;;;;;16.49;73.94;103031.16;5067454;28;20440;-61
2022/10/06 10:36:22;;;;;;;6.93;1.30;;;;;;;16.42;74.41;103030.44;5082387;28;20505;-63
2022/10/06 10:38:47;;;;;;;7.55;1.88;;;;;;;16.37;74.54;103027.00;5068757;28;20028;-63
2022/10/06 10:41:21;;;;;;;11.25;2.28;;;;;;;16.43;75.22;103040.16;5066466;28;20070;-61
2022/10/06 10:43:55;;;;;;;12.45;2.22;;;;;;;16.54;74.55;103037.25;5068956;28;20024;-61
2022/10/06 10:46:33;;;;;;;8.48;2.08;;;;;;;16.57;72.84;103026.53;5047901;28;20755;-63
2022/10/06 10:49:18;;;;;;;10.70;1.77;;;;;;;16.76;73.50;103023.41;5061141;28;20025;-63
2022/10/06 10:51:49;;;;;;;7.55;1.50;;;;;;;16.88;72.76;103040.84;5061331;28;20032;-65
2022/10/06 10:54:18;;;;;;;11.82;1.70;;;;;;;16.93;72.39;103036.31;5068902;28;20123;-63
2022/10/06 10:56:47;;;;;;;11.68;2.05;;;;;;;17.03;72.29;103031.59;5068157;28;20044;-65
2022/10/06 10:59:17;;;;;;;5.60;1.40;;;;;;;17.06;71.33;103042.16;5065576;28;20038;-63
2022/10/06 11:01:48;;;;;;;7.43;1.33;;;;;;;17.08;70.96;103040.38;5066490;28;20032;-62
2022/10/06 11:04:13;;;;;;;8.32;1.75;;;;;;;17.06;69.26;103036.84;5061453;28;20399;-62
2022/10/06 11:07:00;;;;;;;7.28;1.30;;;;;;;16.96;68.72;103046.88;5068494;28;20035;-62
2022/10/06 11:09:39;;;;;;;9.38;1.60;;;;;;;16.94;68.64;103043.38;5067783;28;20360;-62
2022/10/06 11:12:11;;;;;;;8.13;1.80;;;;;;;16.95;69.68;103042.47;5068710;28;20028;-62
2022/10/06 11:21:36;;;;;;;5.30;1.50;;;;;;;17.09;68.19;103051.91;2577503;28;22185;-65
2022/10/06 11:24:38;;;;;;;6.32;1.67;;;;;;;17.07;68.08;103049.31;5029702;28;20052;-63
2022/10/06 11:27:39;;;;;;;5.90;1.38;;;;;;;17.18;68.60;103041.88;5036166;28;20026;-63
2022/10/06 11:30:10;;;;;;;12.18;1.40;;;;;;;16.99;67.60;103046.81;5032313;28;20029;-64
2022/10/06 11:32:48;;;;;;;6.93;2.08;;;;;;;17.04;67.33;103044.03;5035783;28;20067;-61
2022/10/06 11:35:17;;;;;;;5.50;1.30;;;;;;;17.13;66.47;103065.09;5056196;28;20072;-61
2022/10/06 11:37:48;;;;;;;5.38;1.48;;;;;;;17.19;64.65;103064.09;5023412;28;20606;-61
2022/10/06 11:40:26;;;;;;;6.82;1.30;;;;;;;17.15;65.15;103047.28;5034634;28;20033;-61
2022/10/06 11:42:58;;;;;;;10.05;1.80;;;;;;;17.30;65.30;103051.34;5028816;28;20041;-62
2022/10/06 11:45:32;;;;;;;6.35;1.02;;;;;;;17.42;65.64;103051.91;5032696;28;20420;-60
2022/10/06 11:48:06;;;;;;;6.43;1.50;;;;;;;17.60;65.23;103073.63;5032675;28;20436;-61
2022/10/06 11:50:36;;;;;;;6.55;1.35;;;;;;;17.65;62.70;103059.28;5039574;28;20523;-61
2022/10/06 11:53:04;;;;;;;8.05;1.38;;;;;;;18.00;61.33;103050.28;5028256;28;20033;-63